sensor_id;sensor_type;location;lat;lon;timestamp;P1;durP1;ratioP1;P2;durP2;ratioP2
61435;SDS011;47304;47.456;19.160;2023-08-12T08:35:59;8.30;;;4.20;;
61435;SDS011;47304;47.456;19.160;2023-08-12T08:38:26;8.70;;;4.50;;
61435;SDS011;47304;47.456;19.160;2023-08-12T08:40:53;9.10;;;4.10;;
61435;SDS011;47304;47.456;19.160;2023-08-12T08:43:20;8.60;;;3.90;;
61435;SDS011;47304;47.456;19.160;2023-08-12T08:45:49;7.00;;;3.60;;
61435;SDS011;47304;47.456;19.160;2023-08-12T08:48:19;6.90;;;3.60;;
61435;SDS011;47304;47.456;19.160;2023-08-12T08:50:48;6.70;;;3.20;;
61435;SDS011;47304;47.456;19.160;2023-08-12T08:53:15;7.80;;;3.40;;
61435;SDS011;47304;47.456;19.160;2023-08-12T08:55:42;6.80;;;3.30;;
61435;SDS011;47304;47.456;19.160;2023-08-12T08:58:09;10.10;;;3.60;;
61435;SDS011;47304;47.456;19.160;2023-08-12T09:00:36;8.10;;;3.80;;
61435;SDS011;47304;47.456;19.160;2023-08-12T09:03:04;25.90;;;19.00;;
61435;SDS011;47304;47.456;19.160;2023-08-12T09:05:32;13.30;;;7.70;;
61435;SDS011;47304;47.456;19.160;2023-08-12T09:08:01;8.70;;;3.90;;
61435;SDS011;47304;47.456;19.160;2023-08-12T09:10:28;7.40;;;3.50;;
61435;SDS011;47304;47.456;19.160;2023-08-12T09:12:56;7.90;;;3.80;;
61435;SDS011;47304;47.456;19.160;2023-08-12T09:15:23;8.40;;;4.10;;
61435;SDS011;47304;47.456;19.160;2023-08-12T09:17:50;7.80;;;3.60;;
61435;SDS011;47304;47.456;19.160;2023-08-12T09:20:16;7.50;;;3.50;;
61435;SDS011;47304;47.456;19.160;2023-08-12T09:22:43;7.70;;;3.30;;
61435;SDS011;47304;47.456;19.160;2023-08-12T09:25:10;7.10;;;3.40;;
61435;SDS011;47304;47.456;19.160;2023-08-12T09:27:36;6.90;;;3.20;;
61435;SDS011;47304;47.456;19.160;2023-08-12T09:30:03;9.30;;;3.80;;
61435;SDS011;47304;47.456;19.160;2023-08-12T09:32:31;7.50;;;3.60;;
61435;SDS011;47304;47.456;19.160;2023-08-12T09:34:57;7.70;;;3.40;;
61435;SDS011;47304;47.456;19.160;2023-08-12T09:37:24;7.50;;;3.20;;
61435;SDS011;47304;47.456;19.160;2023-08-12T09:39:51;7.10;;;3.40;;
61435;SDS011;47304;47.456;19.160;2023-08-12T09:42:18;9.20;;;3.80;;
61435;SDS011;47304;47.456;19.160;2023-08-12T09:44:45;7.10;;;3.50;;
61435;SDS011;47304;47.456;19.160;2023-08-12T09:47:12;7.10;;;3.20;;
61435;SDS011;47304;47.456;19.160;2023-08-12T09:49:39;10.90;;;3.30;;
61435;SDS011;47304;47.456;19.160;2023-08-12T09:52:07;6.70;;;3.00;;
61435;SDS011;47304;47.456;19.160;2023-08-12T09:54:35;6.20;;;2.80;;
61435;SDS011;47304;47.456;19.160;2023-08-12T09:57:02;7.00;;;3.20;;
61435;SDS011;47304;47.456;19.160;2023-08-12T09:59:31;9.50;;;3.30;;
61435;SDS011;47304;47.456;19.160;2023-08-12T10:01:58;6.90;;;3.30;;
61435;SDS011;47304;47.456;19.160;2023-08-12T10:04:27;7.10;;;3.40;;
61435;SDS011;47304;47.456;19.160;2023-08-12T10:06:58;6.60;;;3.40;;
61435;SDS011;47304;47.456;19.160;2023-08-12T10:09:25;7.00;;;3.20;;
61435;SDS011;47304;47.456;19.160;2023-08-12T10:11:52;7.40;;;3.10;;
61435;SDS011;47304;47.456;19.160;2023-08-12T10:14:19;9.60;;;3.40;;
61435;SDS011;47304;47.456;19.160;2023-08-12T10:16:47;7.10;;;3.00;;
61435;SDS011;47304;47.456;19.160;2023-08-12T10:19:14;6.60;;;3.10;;
61435;SDS011;47304;47.456;19.160;2023-08-12T10:21:43;7.10;;;3.30;;
61435;SDS011;47304;47.456;19.160;2023-08-12T10:24:10;10.40;;;3.00;;
61435;SDS011;47304;47.456;19.160;2023-08-12T10:26:37;8.00;;;3.20;;
61435;SDS011;47304;47.456;19.160;2023-08-12T10:29:06;5.90;;;3.00;;
61435;SDS011;47304;47.456;19.160;2023-08-12T10:31:32;6.40;;;2.90;;
61435;SDS011;47304;47.456;19.160;2023-08-12T10:33:59;6.50;;;2.90;;
61435;SDS011;47304;47.456;19.160;2023-08-12T10:36:26;6.40;;;3.10;;
61435;SDS011;47304;47.456;19.160;2023-08-12T10:38:53;6.30;;;2.70;;
61435;SDS011;47304;47.456;19.160;2023-08-12T10:41:20;6.50;;;3.20;;
61435;SDS011;47304;47.456;19.160;2023-08-12T10:43:55;6.80;;;3.00;;
61435;SDS011;47304;47.456;19.160;2023-08-12T10:46:30;8.20;;;4.90;;
61435;SDS011;47304;47.456;19.160;2023-08-12T10:49:08;9.10;;;2.90;;
61435;SDS011;47304;47.456;19.160;2023-08-12T11:02:13;5.10;;;2.60;;
61435;SDS011;47304;47.456;19.160;2023-08-12T11:04:57;5.50;;;2.60;;
61435;SDS011;47304;47.456;19.160;2023-08-12T11:07:34;7.40;;;3.40;;
61435;SDS011;47304;47.456;19.160;2023-08-12T11:12:35;6.40;;;2.70;;
61435;SDS011;47304;47.456;19.160;2023-08-12T11:15:03;5.50;;;2.50;;
61435;SDS011;47304;47.456;19.160;2023-08-12T11:17:34;6.00;;;2.50;;
61435;SDS011;47304;47.456;19.160;2023-08-12T11:20:03;5.20;;;2.50;;
61435;SDS011;47304;47.456;19.160;2023-08-12T11:22:35;5.50;;;2.50;;
61435;SDS011;47304;47.456;19.160;2023-08-12T11:25:04;6.30;;;3.00;;
61435;SDS011;47304;47.456;19.160;2023-08-12T11:27:42;7.10;;;2.90;;
61435;SDS011;47304;47.456;19.160;2023-08-12T11:30:10;7.10;;;2.80;;
61435;SDS011;47304;47.456;19.160;2023-08-12T11:32:39;5.60;;;2.60;;
61435;SDS011;47304;47.456;19.160;2023-08-12T11:35:06;5.70;;;2.50;;
61435;SDS011;47304;47.456;19.160;2023-08-12T11:37:35;5.60;;;2.80;;
61435;SDS011;47304;47.456;19.160;2023-08-12T11:40:03;5.80;;;2.60;;
61435;SDS011;47304;47.456;19.160;2023-08-12T11:42:31;6.70;;;3.00;;
61435;SDS011;47304;47.456;19.160;2023-08-12T11:44:58;4.80;;;2.60;;
61435;SDS011;47304;47.456;19.160;2023-08-12T11:47:24;6.40;;;2.70;;
61435;SDS011;47304;47.456;19.160;2023-08-12T11:49:52;6.30;;;2.90;;
61435;SDS011;47304;47.456;19.160;2023-08-12T11:52:19;5.40;;;2.60;;
61435;SDS011;47304;47.456;19.160;2023-08-12T11:54:47;5.80;;;2.80;;
61435;SDS011;47304;47.456;19.160;2023-08-12T11:57:15;8.20;;;3.00;;
61435;SDS011;47304;47.456;19.160;2023-08-12T11:59:43;5.80;;;2.70;;
61435;SDS011;47304;47.456;19.160;2023-08-12T12:02:10;5.40;;;2.90;;
61435;SDS011;47304;47.456;19.160;2023-08-12T12:04:37;6.40;;;2.90;;
61435;SDS011;47304;47.456;19.160;2023-08-12T12:07:16;5.30;;;2.50;;
61435;SDS011;47304;47.456;19.160;2023-08-12T12:09:44;6.50;;;2.70;;
61435;SDS011;47304;47.456;19.160;2023-08-12T12:12:10;6.40;;;3.00;;
61435;SDS011;47304;47.456;19.160;2023-08-12T12:14:37;5.50;;;2.60;;
61435;SDS011;47304;47.456;19.160;2023-08-12T12:17:08;5.60;;;2.70;;
61435;SDS011;47304;47.456;19.160;2023-08-12T12:19:35;10.70;;;3.20;;
61435;SDS011;47304;47.456;19.160;2023-08-12T12:22:02;6.60;;;2.50;;
61435;SDS011;47304;47.456;19.160;2023-08-12T12:24:30;5.40;;;2.70;;
61435;SDS011;47304;47.456;19.160;2023-08-12T12:26:56;5.60;;;2.60;;
61435;SDS011;47304;47.456;19.160;2023-08-12T12:29:23;5.50;;;2.80;;
61435;SDS011;47304;47.456;19.160;2023-08-12T12:31:50;6.70;;;2.80;;
61435;SDS011;47304;47.456;19.160;2023-08-12T12:34:16;5.40;;;2.60;;
61435;SDS011;47304;47.456;19.160;2023-08-12T12:36:43;6.20;;;2.70;;
61435;SDS011;47304;47.456;19.160;2023-08-12T12:39:09;11.50;;;3.20;;
61435;SDS011;47304;47.456;19.160;2023-08-12T12:41:36;6.60;;;3.20;;
61435;SDS011;47304;47.456;19.160;2023-08-12T12:44:03;6.10;;;3.10;;
61435;SDS011;47304;47.456;19.160;2023-08-12T12:46:29;7.70;;;3.40;;
61435;SDS011;47304;47.456;19.160;2023-08-12T12:48:56;6.60;;;3.20;;
61435;SDS011;47304;47.456;19.160;2023-08-12T12:51:23;9.20;;;3.30;;
61435;SDS011;47304;47.456;19.160;2023-08-12T12:53:49;5.90;;;2.80;;
61435;SDS011;47304;47.456;19.160;2023-08-12T12:56:16;6.00;;;2.80;;
61435;SDS011;47304;47.456;19.160;2023-08-12T12:58:43;7.20;;;3.00;;
61435;SDS011;47304;47.456;19.160;2023-08-12T13:01:09;5.90;;;2.80;;
61435;SDS011;47304;47.456;19.160;2023-08-12T13:03:36;6.20;;;2.80;;
61435;SDS011;47304;47.456;19.160;2023-08-12T13:06:04;6.50;;;2.90;;
61435;SDS011;47304;47.456;19.160;2023-08-12T13:08:31;6.20;;;2.80;;
61435;SDS011;47304;47.456;19.160;2023-08-12T13:10:58;6.40;;;3.10;;
61435;SDS011;47304;47.456;19.160;2023-08-12T13:13:25;6.30;;;3.10;;
61435;SDS011;47304;47.456;19.160;2023-08-12T13:15:51;7.00;;;3.40;;
61435;SDS011;47304;47.456;19.160;2023-08-12T13:18:18;5.80;;;2.90;;
61435;SDS011;47304;47.456;19.160;2023-08-12T13:20:45;6.60;;;2.70;;
61435;SDS011;47304;47.456;19.160;2023-08-12T13:23:11;6.10;;;2.80;;
61435;SDS011;47304;47.456;19.160;2023-08-12T13:25:38;7.60;;;3.10;;
61435;SDS011;47304;47.456;19.160;2023-08-12T13:28:04;6.60;;;3.10;;
61435;SDS011;47304;47.456;19.160;2023-08-12T13:30:31;6.00;;;3.30;;
61435;SDS011;47304;47.456;19.160;2023-08-12T13:32:58;6.10;;;2.90;;
61435;SDS011;47304;47.456;19.160;2023-08-12T13:35:27;8.30;;;3.10;;
61435;SDS011;47304;47.456;19.160;2023-08-12T13:37:54;6.70;;;2.90;;
61435;SDS011;47304;47.456;19.160;2023-08-12T13:40:20;8.00;;;3.00;;
61435;SDS011;47304;47.456;19.160;2023-08-12T13:42:47;6.10;;;3.00;;
61435;SDS011;47304;47.456;19.160;2023-08-12T13:45:13;6.00;;;3.00;;
61435;SDS011;47304;47.456;19.160;2023-08-12T13:47:40;5.90;;;2.90;;
61435;SDS011;47304;47.456;19.160;2023-08-12T13:50:07;6.80;;;3.50;;
61435;SDS011;47304;47.456;19.160;2023-08-12T13:52:36;7.60;;;3.30;;
61435;SDS011;47304;47.456;19.160;2023-08-12T13:55:03;8.60;;;3.40;;
61435;SDS011;47304;47.456;19.160;2023-08-12T13:57:30;7.70;;;3.00;;
61435;SDS011;47304;47.456;19.160;2023-08-12T13:59:56;7.50;;;3.50;;
61435;SDS011;47304;47.456;19.160;2023-08-12T14:02:24;6.50;;;3.10;;
61435;SDS011;47304;47.456;19.160;2023-08-12T14:04:51;8.20;;;3.10;;
61435;SDS011;47304;47.456;19.160;2023-08-12T14:07:17;5.70;;;2.90;;
61435;SDS011;47304;47.456;19.160;2023-08-12T14:09:44;7.70;;;3.30;;
61435;SDS011;47304;47.456;19.160;2023-08-12T14:12:10;6.40;;;3.10;;
61435;SDS011;47304;47.456;19.160;2023-08-12T14:14:37;5.90;;;3.00;;
61435;SDS011;47304;47.456;19.160;2023-08-12T14:17:04;6.20;;;2.90;;
61435;SDS011;47304;47.456;19.160;2023-08-12T14:19:30;9.50;;;3.20;;
61435;SDS011;47304;47.456;19.160;2023-08-12T14:21:57;5.50;;;2.80;;
61435;SDS011;47304;47.456;19.160;2023-08-12T14:24:24;5.40;;;2.70;;
61435;SDS011;47304;47.456;19.160;2023-08-12T14:26:50;6.70;;;3.10;;
61435;SDS011;47304;47.456;19.160;2023-08-12T14:29:17;5.60;;;2.70;;
61435;SDS011;47304;47.456;19.160;2023-08-12T14:31:43;6.90;;;3.00;;
61435;SDS011;47304;47.456;19.160;2023-08-12T14:34:10;5.80;;;2.70;;
61435;SDS011;47304;47.456;19.160;2023-08-12T14:36:36;6.70;;;2.80;;
61435;SDS011;47304;47.456;19.160;2023-08-12T14:39:03;5.80;;;2.80;;
61435;SDS011;47304;47.456;19.160;2023-08-12T14:41:29;7.30;;;2.80;;
61435;SDS011;47304;47.456;19.160;2023-08-12T14:43:56;11.10;;;3.20;;
61435;SDS011;47304;47.456;19.160;2023-08-12T14:46:23;6.40;;;2.80;;
61435;SDS011;47304;47.456;19.160;2023-08-12T14:48:49;6.40;;;2.90;;
61435;SDS011;47304;47.456;19.160;2023-08-12T14:51:16;8.10;;;3.30;;
61435;SDS011;47304;47.456;19.160;2023-08-12T14:53:42;6.40;;;2.90;;
61435;SDS011;47304;47.456;19.160;2023-08-12T14:56:09;4.80;;;2.50;;
61435;SDS011;47304;47.456;19.160;2023-08-12T14:58:36;6.20;;;2.80;;
61435;SDS011;47304;47.456;19.160;2023-08-12T15:01:02;8.00;;;3.10;;
61435;SDS011;47304;47.456;19.160;2023-08-12T15:03:29;6.30;;;3.10;;
61435;SDS011;47304;47.456;19.160;2023-08-12T15:06:00;6.00;;;2.80;;
61435;SDS011;47304;47.456;19.160;2023-08-12T15:08:27;8.30;;;3.10;;
61435;SDS011;47304;47.456;19.160;2023-08-12T15:10:54;6.10;;;2.50;;
61435;SDS011;47304;47.456;19.160;2023-08-12T15:13:21;5.70;;;2.90;;
61435;SDS011;47304;47.456;19.160;2023-08-12T15:15:48;7.40;;;3.10;;
61435;SDS011;47304;47.456;19.160;2023-08-12T15:18:16;5.70;;;2.80;;
61435;SDS011;47304;47.456;19.160;2023-08-12T15:20:42;5.80;;;2.80;;
61435;SDS011;47304;47.456;19.160;2023-08-12T15:23:10;7.00;;;3.30;;
61435;SDS011;47304;47.456;19.160;2023-08-12T15:25:37;7.10;;;3.50;;
61435;SDS011;47304;47.456;19.160;2023-08-12T15:28:03;6.10;;;2.80;;
61435;SDS011;47304;47.456;19.160;2023-08-12T15:30:30;6.20;;;3.00;;
61435;SDS011;47304;47.456;19.160;2023-08-12T15:32:57;5.50;;;2.90;;
61435;SDS011;47304;47.456;19.160;2023-08-12T15:35:24;6.70;;;2.70;;
61435;SDS011;47304;47.456;19.160;2023-08-12T15:37:50;6.90;;;2.90;;
61435;SDS011;47304;47.456;19.160;2023-08-12T15:40:17;6.30;;;3.00;;
61435;SDS011;47304;47.456;19.160;2023-08-12T15:42:44;8.20;;;2.90;;
61435;SDS011;47304;47.456;19.160;2023-08-12T15:45:10;6.10;;;2.90;;
61435;SDS011;47304;47.456;19.160;2023-08-12T15:47:37;6.10;;;3.00;;
61435;SDS011;47304;47.456;19.160;2023-08-12T15:50:03;6.60;;;3.10;;
61435;SDS011;47304;47.456;19.160;2023-08-12T15:52:30;6.40;;;2.80;;
61435;SDS011;47304;47.456;19.160;2023-08-12T15:54:57;5.20;;;2.60;;
61435;SDS011;47304;47.456;19.160;2023-08-12T15:57:23;7.30;;;2.60;;
61435;SDS011;47304;47.456;19.160;2023-08-12T15:59:50;5.50;;;2.50;;
61435;SDS011;47304;47.456;19.160;2023-08-12T16:02:16;5.80;;;2.80;;
61435;SDS011;47304;47.456;19.160;2023-08-12T16:04:43;6.70;;;2.90;;
61435;SDS011;47304;47.456;19.160;2023-08-12T16:07:10;5.80;;;2.80;;
61435;SDS011;47304;47.456;19.160;2023-08-12T16:09:36;6.30;;;2.90;;
61435;SDS011;47304;47.456;19.160;2023-08-12T16:12:03;6.90;;;3.10;;
61435;SDS011;47304;47.456;19.160;2023-08-12T16:14:30;6.00;;;2.80;;
61435;SDS011;47304;47.456;19.160;2023-08-12T16:16:56;6.40;;;3.00;;
61435;SDS011;47304;47.456;19.160;2023-08-12T16:19:23;5.50;;;2.60;;
61435;SDS011;47304;47.456;19.160;2023-08-12T16:21:50;6.30;;;2.90;;
61435;SDS011;47304;47.456;19.160;2023-08-12T16:24:16;6.00;;;2.70;;
61435;SDS011;47304;47.456;19.160;2023-08-12T16:26:43;8.60;;;3.00;;
61435;SDS011;47304;47.456;19.160;2023-08-12T16:29:09;6.50;;;3.10;;
61435;SDS011;47304;47.456;19.160;2023-08-12T16:31:36;6.80;;;3.10;;
61435;SDS011;47304;47.456;19.160;2023-08-12T16:34:05;10.50;;;4.10;;
61435;SDS011;47304;47.456;19.160;2023-08-12T16:36:32;10.10;;;5.10;;
61435;SDS011;47304;47.456;19.160;2023-08-12T16:38:58;13.80;;;6.70;;
61435;SDS011;47304;47.456;19.160;2023-08-12T16:41:25;8.80;;;5.10;;
61435;SDS011;47304;47.456;19.160;2023-08-12T16:43:52;9.90;;;5.20;;
61435;SDS011;47304;47.456;19.160;2023-08-12T16:46:18;22.20;;;13.20;;
61435;SDS011;47304;47.456;19.160;2023-08-12T16:48:45;13.20;;;7.20;;
61435;SDS011;47304;47.456;19.160;2023-08-12T16:51:12;8.00;;;3.50;;
61435;SDS011;47304;47.456;19.160;2023-08-12T16:53:38;7.30;;;3.20;;
61435;SDS011;47304;47.456;19.160;2023-08-12T16:56:05;7.00;;;3.40;;
61435;SDS011;47304;47.456;19.160;2023-08-12T16:58:31;7.50;;;3.80;;
61435;SDS011;47304;47.456;19.160;2023-08-12T17:00:59;7.60;;;3.40;;
61435;SDS011;47304;47.456;19.160;2023-08-12T17:03:26;8.00;;;3.90;;
61435;SDS011;47304;47.456;19.160;2023-08-12T17:05:53;7.80;;;3.60;;
61435;SDS011;47304;47.456;19.160;2023-08-12T17:08:19;9.30;;;3.80;;
61435;SDS011;47304;47.456;19.160;2023-08-12T17:10:46;6.80;;;3.60;;
61435;SDS011;47304;47.456;19.160;2023-08-12T17:13:12;7.90;;;3.40;;
61435;SDS011;47304;47.456;19.160;2023-08-12T17:15:40;7.80;;;3.40;;
61435;SDS011;47304;47.456;19.160;2023-08-12T17:18:07;7.10;;;3.30;;
61435;SDS011;47304;47.456;19.160;2023-08-12T17:20:34;7.00;;;3.40;;
61435;SDS011;47304;47.456;19.160;2023-08-12T17:23:00;7.40;;;3.60;;
61435;SDS011;47304;47.456;19.160;2023-08-12T17:25:27;7.10;;;3.40;;
61435;SDS011;47304;47.456;19.160;2023-08-12T17:27:53;6.70;;;3.40;;
61435;SDS011;47304;47.456;19.160;2023-08-12T17:30:20;7.40;;;3.50;;
61435;SDS011;47304;47.456;19.160;2023-08-12T17:32:47;7.00;;;3.50;;
61435;SDS011;47304;47.456;19.160;2023-08-12T17:35:13;9.10;;;3.50;;
61435;SDS011;47304;47.456;19.160;2023-08-12T17:37:40;9.00;;;3.20;;
61435;SDS011;47304;47.456;19.160;2023-08-12T17:40:07;7.10;;;3.50;;
61435;SDS011;47304;47.456;19.160;2023-08-12T17:42:34;9.00;;;3.70;;
61435;SDS011;47304;47.456;19.160;2023-08-12T17:45:01;7.10;;;3.60;;
61435;SDS011;47304;47.456;19.160;2023-08-12T17:47:27;7.00;;;3.30;;
61435;SDS011;47304;47.456;19.160;2023-08-12T17:49:54;7.80;;;3.80;;
61435;SDS011;47304;47.456;19.160;2023-08-12T17:52:21;9.90;;;3.40;;
61435;SDS011;47304;47.456;19.160;2023-08-12T17:54:47;7.20;;;3.50;;
61435;SDS011;47304;47.456;19.160;2023-08-12T17:57:14;8.50;;;3.20;;
61435;SDS011;47304;47.456;19.160;2023-08-12T17:59:40;7.30;;;3.20;;
61435;SDS011;47304;47.456;19.160;2023-08-12T18:02:07;6.10;;;3.20;;
61435;SDS011;47304;47.456;19.160;2023-08-12T18:04:33;6.10;;;3.40;;
61435;SDS011;47304;47.456;19.160;2023-08-12T18:07:00;8.30;;;3.40;;
61435;SDS011;47304;47.456;19.160;2023-08-12T18:09:26;7.90;;;3.40;;
61435;SDS011;47304;47.456;19.160;2023-08-12T18:11:53;7.20;;;3.70;;
61435;SDS011;47304;47.456;19.160;2023-08-12T18:14:19;7.20;;;3.80;;
61435;SDS011;47304;47.456;19.160;2023-08-12T18:16:46;8.10;;;4.50;;
61435;SDS011;47304;47.456;19.160;2023-08-12T18:19:19;7.20;;;4.00;;
61435;SDS011;47304;47.456;19.160;2023-08-12T18:24:25;8.50;;;4.00;;
61435;SDS011;47304;47.456;19.160;2023-08-12T18:26:51;8.70;;;4.40;;
61435;SDS011;47304;47.456;19.160;2023-08-12T18:29:18;6.90;;;4.00;;
61435;SDS011;47304;47.456;19.160;2023-08-12T18:31:45;8.30;;;4.30;;
61435;SDS011;47304;47.456;19.160;2023-08-12T18:34:11;8.20;;;4.10;;
61435;SDS011;47304;47.456;19.160;2023-08-12T18:36:38;8.20;;;3.90;;
61435;SDS011;47304;47.456;19.160;2023-08-12T18:39:04;7.60;;;4.50;;
61435;SDS011;47304;47.456;19.160;2023-08-12T18:41:31;7.90;;;4.40;;
61435;SDS011;47304;47.456;19.160;2023-08-12T18:43:58;7.90;;;4.40;;
61435;SDS011;47304;47.456;19.160;2023-08-12T18:46:24;7.50;;;4.10;;
61435;SDS011;47304;47.456;19.160;2023-08-12T18:48:51;8.50;;;4.40;;
61435;SDS011;47304;47.456;19.160;2023-08-12T18:51:17;9.50;;;4.10;;
61435;SDS011;47304;47.456;19.160;2023-08-12T18:53:44;8.70;;;4.60;;
61435;SDS011;47304;47.456;19.160;2023-08-12T18:56:10;7.40;;;4.30;;
61435;SDS011;47304;47.456;19.160;2023-08-12T18:58:37;9.10;;;4.30;;
61435;SDS011;47304;47.456;19.160;2023-08-12T19:01:03;9.30;;;4.20;;
61435;SDS011;47304;47.456;19.160;2023-08-12T19:03:30;8.40;;;4.50;;
61435;SDS011;47304;47.456;19.160;2023-08-12T19:05:57;8.60;;;4.90;;
61435;SDS011;47304;47.456;19.160;2023-08-12T19:08:24;9.00;;;5.30;;
61435;SDS011;47304;47.456;19.160;2023-08-12T19:10:54;9.30;;;5.40;;
61435;SDS011;47304;47.456;19.160;2023-08-12T19:13:24;9.60;;;5.20;;
61435;SDS011;47304;47.456;19.160;2023-08-12T19:15:52;10.20;;;5.20;;
61435;SDS011;47304;47.456;19.160;2023-08-12T19:18:19;11.70;;;5.20;;
61435;SDS011;47304;47.456;19.160;2023-08-12T19:20:47;9.50;;;5.30;;
61435;SDS011;47304;47.456;19.160;2023-08-12T19:23:14;8.90;;;5.10;;
61435;SDS011;47304;47.456;19.160;2023-08-12T19:25:40;9.80;;;5.40;;
61435;SDS011;47304;47.456;19.160;2023-08-12T19:28:07;8.40;;;4.50;;
61435;SDS011;47304;47.456;19.160;2023-08-12T19:30:33;11.40;;;6.10;;
61435;SDS011;47304;47.456;19.160;2023-08-12T19:33:00;10.10;;;4.90;;
61435;SDS011;47304;47.456;19.160;2023-08-12T19:35:27;9.70;;;5.50;;
61435;SDS011;47304;47.456;19.160;2023-08-12T19:37:54;9.00;;;5.10;;
61435;SDS011;47304;47.456;19.160;2023-08-12T19:40:22;10.30;;;5.10;;
61435;SDS011;47304;47.456;19.160;2023-08-12T19:42:48;10.70;;;5.30;;
61435;SDS011;47304;47.456;19.160;2023-08-12T19:45:15;11.90;;;4.90;;
61435;SDS011;47304;47.456;19.160;2023-08-12T19:47:42;9.30;;;4.90;;
61435;SDS011;47304;47.456;19.160;2023-08-12T19:50:10;8.70;;;4.80;;
61435;SDS011;47304;47.456;19.160;2023-08-12T19:52:37;8.70;;;5.00;;
61435;SDS011;47304;47.456;19.160;2023-08-12T19:55:05;8.70;;;4.80;;
61435;SDS011;47304;47.456;19.160;2023-08-12T19:57:32;10.50;;;4.70;;
61435;SDS011;47304;47.456;19.160;2023-08-12T19:59:59;8.90;;;4.90;;
61435;SDS011;47304;47.456;19.160;2023-08-12T20:02:26;9.60;;;5.20;;
61435;SDS011;47304;47.456;19.160;2023-08-12T20:05:11;16.70;;;9.20;;
61435;SDS011;47304;47.456;19.160;2023-08-12T20:07:42;11.00;;;7.40;;
61435;SDS011;47304;47.456;19.160;2023-08-12T20:10:18;15.70;;;9.60;;
61435;SDS011;47304;47.456;19.160;2023-08-12T20:12:46;13.30;;;8.80;;
61435;SDS011;47304;47.456;19.160;2023-08-12T20:15:13;12.70;;;8.10;;
61435;SDS011;47304;47.456;19.160;2023-08-12T20:17:40;13.00;;;8.40;;
61435;SDS011;47304;47.456;19.160;2023-08-12T20:20:08;11.30;;;7.30;;
61435;SDS011;47304;47.456;19.160;2023-08-12T20:22:36;14.80;;;10.10;;
61435;SDS011;47304;47.456;19.160;2023-08-12T20:25:12;12.30;;;8.60;;
61435;SDS011;47304;47.456;19.160;2023-08-12T20:27:39;13.20;;;8.70;;
61435;SDS011;47304;47.456;19.160;2023-08-12T20:30:06;13.00;;;8.00;;
61435;SDS011;47304;47.456;19.160;2023-08-12T20:32:34;12.30;;;7.90;;
61435;SDS011;47304;47.456;19.160;2023-08-12T20:35:02;12.80;;;8.30;;
61435;SDS011;47304;47.456;19.160;2023-08-12T20:37:29;14.50;;;9.60;;
61435;SDS011;47304;47.456;19.160;2023-08-12T20:39:56;14.40;;;9.20;;
61435;SDS011;47304;47.456;19.160;2023-08-12T20:42:23;13.80;;;9.50;;
61435;SDS011;47304;47.456;19.160;2023-08-12T20:44:50;14.90;;;9.10;;
61435;SDS011;47304;47.456;19.160;2023-08-12T20:47:16;15.50;;;9.80;;
61435;SDS011;47304;47.456;19.160;2023-08-12T20:49:43;17.30;;;11.40;;
61435;SDS011;47304;47.456;19.160;2023-08-12T20:52:09;18.70;;;11.80;;
61435;SDS011;47304;47.456;19.160;2023-08-12T20:54:38;20.80;;;12.70;;
61435;SDS011;47304;47.456;19.160;2023-08-12T20:57:05;20.00;;;13.10;;
61435;SDS011;47304;47.456;19.160;2023-08-12T20:59:31;19.40;;;11.80;;
61435;SDS011;47304;47.456;19.160;2023-08-12T21:01:58;19.00;;;11.70;;
61435;SDS011;47304;47.456;19.160;2023-08-12T21:04:24;18.20;;;10.70;;
61435;SDS011;47304;47.456;19.160;2023-08-12T21:06:51;15.60;;;9.60;;
61435;SDS011;47304;47.456;19.160;2023-08-12T21:09:17;12.90;;;8.60;;
61435;SDS011;47304;47.456;19.160;2023-08-12T21:11:44;14.50;;;8.50;;
61435;SDS011;47304;47.456;19.160;2023-08-12T21:14:11;15.60;;;9.20;;
61435;SDS011;47304;47.456;19.160;2023-08-12T21:16:37;16.00;;;9.60;;
61435;SDS011;47304;47.456;19.160;2023-08-12T21:19:04;16.60;;;9.10;;
61435;SDS011;47304;47.456;19.160;2023-08-12T21:21:31;14.30;;;8.20;;
61435;SDS011;47304;47.456;19.160;2023-08-12T21:23:57;14.30;;;8.40;;
61435;SDS011;47304;47.456;19.160;2023-08-12T21:26:24;11.70;;;8.10;;
61435;SDS011;47304;47.456;19.160;2023-08-12T21:28:50;13.80;;;8.00;;
61435;SDS011;47304;47.456;19.160;2023-08-12T21:31:17;12.90;;;7.80;;
61435;SDS011;47304;47.456;19.160;2023-08-12T21:33:43;13.60;;;7.80;;
61435;SDS011;47304;47.456;19.160;2023-08-12T21:36:10;11.90;;;7.00;;
61435;SDS011;47304;47.456;19.160;2023-08-12T21:38:36;11.60;;;7.50;;
61435;SDS011;47304;47.456;19.160;2023-08-12T21:41:03;12.30;;;6.80;;
61435;SDS011;47304;47.456;19.160;2023-08-12T21:43:30;11.10;;;6.60;;
61435;SDS011;47304;47.456;19.160;2023-08-12T21:45:56;10.70;;;6.80;;
61435;SDS011;47304;47.456;19.160;2023-08-12T21:48:23;13.80;;;7.50;;
61435;SDS011;47304;47.456;19.160;2023-08-12T21:50:49;12.50;;;7.20;;
61435;SDS011;47304;47.456;19.160;2023-08-12T21:53:16;11.70;;;6.80;;
61435;SDS011;47304;47.456;19.160;2023-08-12T21:55:42;13.40;;;7.10;;
61435;SDS011;47304;47.456;19.160;2023-08-12T21:58:09;12.50;;;6.80;;
61435;SDS011;47304;47.456;19.160;2023-08-12T22:00:35;12.40;;;7.10;;
61435;SDS011;47304;47.456;19.160;2023-08-12T22:03:02;10.50;;;6.70;;
61435;SDS011;47304;47.456;19.160;2023-08-12T22:05:29;11.60;;;6.80;;
61435;SDS011;47304;47.456;19.160;2023-08-12T22:07:55;11.90;;;7.10;;
61435;SDS011;47304;47.456;19.160;2023-08-12T22:10:22;15.20;;;7.70;;
61435;SDS011;47304;47.456;19.160;2023-08-12T22:12:49;11.90;;;6.70;;
61435;SDS011;47304;47.456;19.160;2023-08-12T22:15:15;13.60;;;6.90;;
61435;SDS011;47304;47.456;19.160;2023-08-12T22:17:42;10.90;;;6.20;;
61435;SDS011;47304;47.456;19.160;2023-08-12T22:20:09;11.80;;;6.50;;
61435;SDS011;47304;47.456;19.160;2023-08-12T22:22:35;12.90;;;7.30;;
61435;SDS011;47304;47.456;19.160;2023-08-12T22:25:02;13.60;;;6.80;;
61435;SDS011;47304;47.456;19.160;2023-08-12T22:27:29;12.00;;;6.80;;
61435;SDS011;47304;47.456;19.160;2023-08-12T22:29:55;10.40;;;6.50;;
61435;SDS011;47304;47.456;19.160;2023-08-12T22:32:22;12.20;;;6.90;;
61435;SDS011;47304;47.456;19.160;2023-08-12T22:34:48;12.50;;;6.80;;
61435;SDS011;47304;47.456;19.160;2023-08-12T22:37:15;12.40;;;6.80;;
61435;SDS011;47304;47.456;19.160;2023-08-12T22:39:41;11.40;;;7.00;;
61435;SDS011;47304;47.456;19.160;2023-08-12T22:42:08;10.20;;;6.30;;
61435;SDS011;47304;47.456;19.160;2023-08-12T22:44:34;10.10;;;6.50;;
61435;SDS011;47304;47.456;19.160;2023-08-12T22:47:01;14.40;;;6.60;;
61435;SDS011;47304;47.456;19.160;2023-08-12T22:49:28;9.90;;;6.00;;
61435;SDS011;47304;47.456;19.160;2023-08-12T22:51:54;11.60;;;6.10;;
61435;SDS011;47304;47.456;19.160;2023-08-12T22:54:21;11.20;;;5.80;;
61435;SDS011;47304;47.456;19.160;2023-08-12T22:56:47;11.80;;;6.40;;
61435;SDS011;47304;47.456;19.160;2023-08-12T22:59:14;12.00;;;6.60;;
61435;SDS011;47304;47.456;19.160;2023-08-12T23:01:44;11.30;;;6.30;;
61435;SDS011;47304;47.456;19.160;2023-08-12T23:04:11;10.80;;;6.10;;
61435;SDS011;47304;47.456;19.160;2023-08-12T23:06:37;12.10;;;6.70;;
61435;SDS011;47304;47.456;19.160;2023-08-12T23:09:04;10.90;;;6.10;;
61435;SDS011;47304;47.456;19.160;2023-08-12T23:11:30;10.80;;;6.60;;
61435;SDS011;47304;47.456;19.160;2023-08-12T23:13:57;13.80;;;6.60;;
61435;SDS011;47304;47.456;19.160;2023-08-12T23:16:24;11.10;;;5.90;;
61435;SDS011;47304;47.456;19.160;2023-08-12T23:18:50;10.90;;;6.20;;
61435;SDS011;47304;47.456;19.160;2023-08-12T23:21:17;11.40;;;6.00;;